createdAt,value
2018-12-08T00:03:38.448Z,24.43
2018-12-08T00:08:45.082Z,20.87
2018-12-08T00:13:49.631Z,20.27
2018-12-08T00:18:53.980Z,24.53
2018-12-08T00:23:59.127Z,18.27
2018-12-08T00:29:03.382Z,18.97
2018-12-08T00:34:09.153Z,23.33
2018-12-08T00:39:13.486Z,21.20
2018-12-08T00:44:17.994Z,21.60
2018-12-08T00:49:22.508Z,22.13
2018-12-08T00:54:26.770Z,26.93
2018-12-08T00:59:32.230Z,31.20
2018-12-08T01:04:51.382Z,23.70
2018-12-08T01:09:58.200Z,24.27
2018-12-08T01:15:04.033Z,26.97
2018-12-08T01:20:10.144Z,26.13
2018-12-08T01:25:14.624Z,26.83
2018-12-08T01:30:18.866Z,23.53
2018-12-08T01:35:23.628Z,22.23
2018-12-08T01:40:27.880Z,23.37
2018-12-08T01:45:37.199Z,24.10
2018-12-08T01:50:41.481Z,27.63
2018-12-08T01:55:45.811Z,27.43
2018-12-08T02:00:50.033Z,21.73
2018-12-08T02:05:55.531Z,27.47
2018-12-08T02:11:00.095Z,30.67
2018-12-08T02:16:04.403Z,25.90
2018-12-08T02:21:08.534Z,32.27
2018-12-08T02:26:13.110Z,28.27
2018-12-08T02:31:17.554Z,21.93
2018-12-08T02:36:26.673Z,23.17
2018-12-08T02:41:31.126Z,25.40
2018-12-08T02:46:35.353Z,29.07
2018-12-08T02:51:41.328Z,26.00
2018-12-08T02:56:50.628Z,24.93
2018-12-08T03:01:55.199Z,22.03
2018-12-08T03:06:59.513Z,26.20
2018-12-08T03:12:05.019Z,29.13
2018-12-08T03:17:09.251Z,25.37
2018-12-08T03:22:13.470Z,34.83
2018-12-08T03:27:17.752Z,31.97
2018-12-08T03:32:22.111Z,27.53
2018-12-08T03:37:26.337Z,25.70
2018-12-08T03:42:30.944Z,29.27
2018-12-08T03:47:36.081Z,36.40
2018-12-08T03:52:40.559Z,30.77
2018-12-08T03:57:46.178Z,29.87
2018-12-08T04:02:50.470Z,30.17
2018-12-08T04:07:54.738Z,28.17
2018-12-08T04:12:59.100Z,25.97
2018-12-08T04:18:03.602Z,31.63
2018-12-08T04:23:08.677Z,35.70
2018-12-08T04:28:12.864Z,35.40
2018-12-08T04:33:17.103Z,30.73
2018-12-08T04:38:21.453Z,32.43
2018-12-08T04:43:25.766Z,24.30
2018-12-08T04:48:30.304Z,27.67
2018-12-08T04:53:34.461Z,27.70
2018-12-08T04:58:38.619Z,30.93
2018-12-08T05:03:42.777Z,30.50
2018-12-08T05:08:46.981Z,30.57
2018-12-08T05:13:51.463Z,31.17
2018-12-08T05:18:55.670Z,32.37
2018-12-08T05:24:00.502Z,28.40
2018-12-08T05:29:06.785Z,29.10
2018-12-08T05:34:11.124Z,23.93
2018-12-08T05:39:15.391Z,31.83
2018-12-08T05:44:19.953Z,34.03
2018-12-08T05:49:24.362Z,27.43
2018-12-08T05:54:28.587Z,34.47
2018-12-08T05:59:32.786Z,34.23
2018-12-08T06:04:42.095Z,37.83
2018-12-08T06:09:46.464Z,38.23
2018-12-08T06:14:50.782Z,32.97
2018-12-08T06:19:54.988Z,30.97
2018-12-08T06:25:01.743Z,28.90
2018-12-08T06:30:08.423Z,31.47
2018-12-08T06:35:12.940Z,34.43
2018-12-08T06:40:17.358Z,29.07
2018-12-08T06:45:22.750Z,29.23
2018-12-08T06:50:27.140Z,23.73
2018-12-08T06:55:36.632Z,26.13
2018-12-08T07:00:41.076Z,23.17
2018-12-08T07:05:45.410Z,27.80
2018-12-08T07:10:50.077Z,29.10
2018-12-08T07:15:54.332Z,27.77
2018-12-08T07:20:58.744Z,30.03
2018-12-08T07:26:08.352Z,32.93
2018-12-08T07:31:12.928Z,30.33
2018-12-08T07:36:17.385Z,35.27
2018-12-08T07:41:21.704Z,27.77
2018-12-08T07:46:35.698Z,33.77
2018-12-08T07:51:40.287Z,30.03
2018-12-08T07:56:44.799Z,28.43
2018-12-08T08:01:49.125Z,31.67
2018-12-08T08:06:53.386Z,30.30
2018-12-08T08:11:57.641Z,30.80
2018-12-08T08:17:02.047Z,25.43
2018-12-08T08:22:06.496Z,21.23
2018-12-08T08:27:12.749Z,23.93
2018-12-08T08:32:17.293Z,25.00
2018-12-08T08:37:21.911Z,25.17
2018-12-08T08:42:26.205Z,18.80
2018-12-08T08:47:30.536Z,18.23
2018-12-08T08:52:36.271Z,19.03
2018-12-08T08:57:40.817Z,19.07
2018-12-08T09:08:01.501Z,28.40
2018-12-08T09:13:07.598Z,24.40
2018-12-08T09:18:12.725Z,21.20
2018-12-08T09:23:17.089Z,20.73
2018-12-08T09:28:22.183Z,23.80
2018-12-08T09:33:27.629Z,21.67
2018-12-08T09:38:32.577Z,23.03
2018-12-08T09:43:36.958Z,18.87
2018-12-08T09:48:41.232Z,16.37
2018-12-08T09:53:45.483Z,16.47
2018-12-08T09:58:50.125Z,15.70
2018-12-08T10:03:56.946Z,16.63
2018-12-08T10:09:02.127Z,16.20
2018-12-08T10:14:08.767Z,14.67
2018-12-08T10:19:13.367Z,14.93
2018-12-08T10:24:19.974Z,15.47
2018-12-08T10:29:24.488Z,14.43
2018-12-08T10:34:29.537Z,14.13
2018-12-08T10:39:35.022Z,17.27
2018-12-08T10:44:39.908Z,15.47
2018-12-08T10:49:45.450Z,17.07
2018-12-08T10:54:49.732Z,21.33
2018-12-08T10:59:54.160Z,17.73
2018-12-08T11:05:00.669Z,16.63
2018-12-08T11:10:05.418Z,16.13
2018-12-08T11:15:10.731Z,17.07
2018-12-08T11:20:15.267Z,20.00
2018-12-08T11:25:28.598Z,19.93
2018-12-08T11:30:34.792Z,18.97
2018-12-08T11:35:39.296Z,19.20
2018-12-08T11:40:43.701Z,21.93
2018-12-08T11:45:48.142Z,17.17
2018-12-08T11:50:52.949Z,18.47
2018-12-08T11:56:00.521Z,16.90
2018-12-08T12:01:04.947Z,17.43
2018-12-08T12:06:16.288Z,20.13
2018-12-08T12:11:21.895Z,22.27
2018-12-08T12:16:26.123Z,24.23
2018-12-08T12:21:30.547Z,17.40
2018-12-08T12:26:36.527Z,18.37
2018-12-08T12:31:40.985Z,17.70
2018-12-08T12:36:51.141Z,15.93
2018-12-08T12:41:55.393Z,15.13
2018-12-08T12:46:59.788Z,14.73
2018-12-08T12:52:04.358Z,15.20
2018-12-08T12:57:14.132Z,13.70
2018-12-08T13:02:18.608Z,14.83
2018-12-08T13:07:23.294Z,15.77
2018-12-08T13:12:30.023Z,14.40
2018-12-08T13:17:34.228Z,18.43
2018-12-08T13:22:38.670Z,18.17
2018-12-08T13:27:43.002Z,18.33
2018-12-08T13:32:48.411Z,21.83
2018-12-08T13:37:52.715Z,19.23
2018-12-08T13:42:57.409Z,16.10
2018-12-08T13:48:03.012Z,15.30
2018-12-08T13:53:08.487Z,17.67
2018-12-08T13:58:12.722Z,16.43
2018-12-08T14:03:17.042Z,16.63
2018-12-08T14:08:21.375Z,16.43
2018-12-08T14:13:25.670Z,15.10
2018-12-08T14:18:30.051Z,19.83
2018-12-08T14:23:34.379Z,16.33
2018-12-08T14:28:39.054Z,16.20
2018-12-08T14:33:43.823Z,16.40
2018-12-08T14:38:48.091Z,16.13
2018-12-08T14:43:52.774Z,16.60
2018-12-08T14:48:57.331Z,16.50
2018-12-08T14:54:02.219Z,16.43
2018-12-08T14:59:07.591Z,18.03
2018-12-08T15:04:15.263Z,19.70
2018-12-08T15:09:20.505Z,19.30
2018-12-08T15:14:25.345Z,18.27
2018-12-08T15:19:30.012Z,28.90
2018-12-08T15:24:34.344Z,20.50
2018-12-08T15:29:38.773Z,19.27
2018-12-08T15:34:43.432Z,22.60
2018-12-08T15:39:47.891Z,22.90
2018-12-08T15:44:54.711Z,21.33
2018-12-08T15:49:59.316Z,21.53
2018-12-08T15:55:03.849Z,20.97
2018-12-08T16:00:10.829Z,21.20
2018-12-08T16:05:15.459Z,22.10
2018-12-08T16:10:20.017Z,29.17
2018-12-08T16:15:30.611Z,26.47
2018-12-08T16:20:35.164Z,27.20
2018-12-08T16:25:41.170Z,27.30
2018-12-08T16:30:45.578Z,26.27
2018-12-08T16:35:50.000Z,22.87
2018-12-08T16:40:54.260Z,26.10
2018-12-08T16:46:03.659Z,24.77
2018-12-08T16:51:08.064Z,26.37
2018-12-08T16:56:16.285Z,25.97
2018-12-08T17:01:21.577Z,22.57
2018-12-08T17:06:26.115Z,26.97
2018-12-08T17:11:32.538Z,25.83
2018-12-08T17:16:38.736Z,22.67
2018-12-08T17:21:43.129Z,25.20
2018-12-08T17:26:47.407Z,22.33
2018-12-08T17:31:51.948Z,22.60
2018-12-08T17:36:56.322Z,20.17
2018-12-08T17:42:02.686Z,19.50
2018-12-08T17:47:07.395Z,20.03
2018-12-08T17:52:11.905Z,18.30
2018-12-08T17:57:16.316Z,20.17
2018-12-08T18:02:20.698Z,18.80
2018-12-08T18:07:25.074Z,20.60
2018-12-08T18:12:29.472Z,17.23
2018-12-08T18:17:33.793Z,19.23
2018-12-08T18:22:37.991Z,15.77
2018-12-08T18:27:42.487Z,16.63
2018-12-08T18:32:46.979Z,20.33
2018-12-08T18:37:56.338Z,20.67
2018-12-08T18:43:00.768Z,20.27
2018-12-08T18:48:05.351Z,18.77
2018-12-08T18:53:09.776Z,15.83
2018-12-08T18:58:14.288Z,19.07
2018-12-08T19:08:37.665Z,19.63
2018-12-08T19:13:41.995Z,19.00
2018-12-08T19:18:46.595Z,15.17
2018-12-08T19:23:51.443Z,17.60
2018-12-08T19:28:55.811Z,18.90
2018-12-08T19:34:00.439Z,23.37
2018-12-08T19:39:06.205Z,23.80
2018-12-08T19:44:22.039Z,23.20
2018-12-08T19:49:26.330Z,24.83
2018-12-08T19:54:30.672Z,22.60
2018-12-08T19:59:35.127Z,23.10
2018-12-08T20:04:39.537Z,23.17
2018-12-08T20:09:44.001Z,20.60
2018-12-08T20:14:48.427Z,24.70
2018-12-08T20:19:52.773Z,26.37
2018-12-08T20:24:57.232Z,25.57
2018-12-08T20:30:01.877Z,24.53
2018-12-08T20:35:08.398Z,24.17
2018-12-08T20:40:12.890Z,28.27
2018-12-08T20:45:17.634Z,22.60
2018-12-08T20:50:22.010Z,22.87
2018-12-08T20:55:28.567Z,22.23
2018-12-08T21:00:33.157Z,19.93
2018-12-08T21:05:37.587Z,23.70
2018-12-08T21:10:42.425Z,21.10
2018-12-08T21:15:47.389Z,24.47
2018-12-08T21:20:51.591Z,21.00
2018-12-08T21:25:56.119Z,21.60
2018-12-08T21:31:00.600Z,21.20
2018-12-08T21:36:06.543Z,22.83
2018-12-08T21:41:10.864Z,21.73
2018-12-08T21:46:15.491Z,25.67
2018-12-08T21:51:19.789Z,29.17
2018-12-08T21:56:24.593Z,23.40
2018-12-08T22:06:48.586Z,24.40
2018-12-08T22:11:53.538Z,25.40
2018-12-08T22:16:57.869Z,27.27
2018-12-08T22:22:02.320Z,23.90
2018-12-08T22:27:06.575Z,25.33
2018-12-08T22:32:12.265Z,23.80
2018-12-08T22:37:16.662Z,19.47
2018-12-08T22:42:20.902Z,22.67
2018-12-08T22:47:25.266Z,36.40
2018-12-08T22:52:29.619Z,20.20
2018-12-08T22:57:33.944Z,20.70
2018-12-08T23:02:38.216Z,21.43
2018-12-08T23:07:43.641Z,18.30
2018-12-08T23:12:48.015Z,21.53
2018-12-08T23:17:52.269Z,21.07
2018-12-08T23:22:56.867Z,18.23
2018-12-08T23:28:02.329Z,17.47
2018-12-08T23:33:06.699Z,21.13
2018-12-08T23:38:10.926Z,24.53
2018-12-08T23:43:16.565Z,25.10
2018-12-08T23:48:25.736Z,19.43
2018-12-08T23:53:32.203Z,21.10
2018-12-08T23:58:36.490Z,22.73
